createdAt,value
2023-03-29T00:00:24.192Z,12.10
2023-03-29T00:03:27.727Z,9.50
2023-03-29T00:06:32.811Z,12.65
2023-03-29T00:09:36.150Z,11.15
2023-03-29T00:12:40.458Z,29.30
2023-03-29T00:15:45.113Z,11.95
2023-03-29T00:18:48.434Z,11.10
2023-03-29T00:21:51.923Z,9.90
2023-03-29T00:24:55.122Z,11.98
2023-03-29T00:27:58.415Z,12.02
2023-03-29T00:31:11.695Z,34.85
2023-03-29T00:34:14.893Z,11.07
2023-03-29T00:37:18.789Z,9.73
2023-03-29T00:40:22.239Z,10.02
2023-03-29T00:43:25.921Z,10.75
2023-03-29T00:46:32.564Z,9.38
2023-03-29T00:49:36.229Z,10.77
2023-03-29T00:52:42.003Z,13.32
2023-03-29T00:55:49.826Z,16.00
2023-03-29T00:58:59.208Z,9.48
2023-03-29T01:02:06.959Z,10.68
2023-03-29T01:05:16.060Z,11.18
2023-03-29T01:08:25.690Z,8.32
2023-03-29T01:11:33.558Z,8.65
2023-03-29T01:14:42.869Z,11.05
2023-03-29T01:17:50.715Z,21.50
2023-03-29T01:21:06.554Z,8.32
2023-03-29T01:24:42.064Z,9.25
2023-03-29T01:27:54.377Z,9.40
2023-03-29T01:31:02.271Z,8.35
2023-03-29T01:34:11.153Z,18.80
2023-03-29T01:37:21.875Z,9.27
2023-03-29T01:40:27.260Z,9.98
2023-03-29T01:43:36.200Z,10.65
2023-03-29T01:46:46.499Z,9.45
2023-03-29T01:49:58.164Z,9.40
2023-03-29T01:53:05.620Z,13.55
2023-03-29T01:56:14.842Z,7.47
2023-03-29T01:59:22.545Z,10.05
2023-03-29T02:02:27.766Z,11.60
2023-03-29T02:05:32.436Z,9.82
2023-03-29T02:08:36.955Z,8.45
2023-03-29T02:11:42.978Z,13.85
2023-03-29T02:14:47.958Z,92.18
2023-03-29T02:17:52.069Z,9.93
2023-03-29T02:21:00.197Z,9.85
2023-03-29T02:24:07.753Z,10.95
2023-03-29T02:27:10.945Z,11.82
2023-03-29T02:30:20.857Z,12.00
2023-03-29T02:33:32.852Z,12.88
2023-03-29T02:36:41.699Z,40.45
2023-03-29T02:39:47.616Z,10.73
2023-03-29T02:42:51.654Z,11.60
2023-03-29T02:45:57.027Z,9.88
2023-03-29T02:49:01.016Z,11.00
2023-03-29T02:52:08.245Z,13.73
2023-03-29T02:55:15.690Z,11.93
2023-03-29T02:58:19.007Z,12.07
2023-03-29T03:01:23.920Z,13.00
2023-03-29T03:04:27.520Z,14.68
2023-03-29T03:07:31.385Z,11.57
2023-03-29T03:10:35.200Z,16.90
2023-03-29T03:13:39.994Z,15.05
2023-03-29T03:16:45.134Z,11.32
2023-03-29T03:19:48.497Z,13.95
2023-03-29T03:22:51.823Z,13.75
2023-03-29T03:25:58.110Z,14.02
2023-03-29T03:29:01.953Z,11.35
2023-03-29T03:32:29.452Z,191.07
2023-03-29T03:36:10.160Z,33.53
2023-03-29T03:39:13.370Z,11.80
2023-03-29T03:42:16.642Z,13.00
2023-03-29T03:45:21.722Z,16.35
2023-03-29T03:48:38.865Z,23.13
2023-03-29T03:51:47.797Z,12.85
2023-03-29T03:54:51.870Z,15.65
2023-03-29T03:58:15.985Z,13.73
2023-03-29T04:01:19.685Z,13.18
2023-03-29T04:04:35.757Z,17.17
2023-03-29T04:07:44.015Z,15.60
2023-03-29T04:10:57.521Z,14.80
2023-03-29T04:14:05.930Z,14.45
2023-03-29T04:17:29.605Z,14.30
2023-03-29T04:20:37.150Z,11.60
2023-03-29T04:23:40.395Z,13.38
2023-03-29T04:26:43.962Z,12.13
2023-03-29T04:29:55.270Z,15.20
2023-03-29T04:33:21.348Z,16.42
2023-03-29T04:36:32.345Z,12.93
2023-03-29T04:39:35.951Z,11.85
2023-03-29T04:42:44.780Z,14.40
2023-03-29T04:45:48.738Z,19.35
2023-03-29T04:49:08.852Z,137.63
2023-03-29T04:52:22.401Z,140.98
2023-03-29T04:55:31.851Z,19.33
2023-03-29T04:58:40.821Z,16.15
2023-03-29T05:01:44.130Z,16.17
2023-03-29T05:04:48.146Z,29.67
2023-03-29T05:07:55.333Z,18.65
2023-03-29T05:11:04.491Z,20.58
2023-03-29T05:14:09.297Z,15.30
2023-03-29T05:17:12.598Z,15.93
2023-03-29T05:20:16.098Z,16.30
2023-03-29T05:23:23.015Z,17.73
2023-03-29T05:26:47.540Z,19.92
2023-03-29T05:29:50.719Z,42.33
2023-03-29T05:33:09.129Z,20.75
2023-03-29T05:36:15.100Z,16.90
2023-03-29T05:42:39.514Z,17.15
2023-03-29T05:49:31.042Z,20.65
2023-03-29T05:52:41.048Z,24.88
2023-03-29T05:55:46.619Z,59.50
2023-03-29T05:58:53.666Z,18.20
2023-03-29T06:02:00.401Z,24.60
2023-03-29T06:05:04.764Z,25.98
2023-03-29T06:08:16.123Z,20.10
2023-03-29T06:11:47.621Z,38.88
2023-03-29T06:15:04.700Z,20.20
2023-03-29T06:18:20.659Z,22.23
2023-03-29T06:21:24.484Z,27.13
2023-03-29T06:24:27.750Z,175.45
2023-03-29T06:27:39.167Z,20.00
2023-03-29T06:30:43.678Z,45.38
2023-03-29T06:33:47.284Z,20.60
2023-03-29T06:37:12.879Z,19.88
2023-03-29T06:40:19.097Z,21.40
2023-03-29T06:43:24.838Z,22.00
2023-03-29T06:46:42.430Z,23.35
2023-03-29T06:49:45.803Z,20.33
2023-03-29T06:53:08.756Z,56.58
2023-03-29T06:56:12.457Z,20.90
2023-03-29T06:59:21.461Z,21.63
2023-03-29T07:02:35.769Z,18.58
2023-03-29T07:05:50.387Z,24.40
2023-03-29T07:08:53.620Z,24.08
2023-03-29T07:12:11.252Z,21.08
2023-03-29T07:15:16.599Z,23.80
2023-03-29T07:18:46.974Z,16.65
2023-03-29T07:22:11.980Z,16.85
2023-03-29T07:25:23.986Z,17.27
2023-03-29T07:28:27.202Z,16.65
2023-03-29T07:31:33.442Z,18.02
2023-03-29T07:34:56.907Z,22.15
2023-03-29T07:38:11.291Z,14.43
2023-03-29T07:41:19.250Z,23.75
2023-03-29T07:44:24.743Z,23.48
2023-03-29T07:47:29.845Z,18.58
2023-03-29T07:50:33.507Z,44.85
2023-03-29T07:53:39.837Z,13.75
2023-03-29T07:56:51.667Z,19.60
2023-03-29T08:00:15.819Z,13.85
2023-03-29T08:03:25.399Z,18.25
2023-03-29T08:06:28.656Z,41.65
2023-03-29T08:09:32.040Z,10.00
2023-03-29T08:12:35.439Z,11.07
2023-03-29T08:15:40.193Z,14.02
2023-03-29T08:18:55.015Z,13.65
2023-03-29T08:22:02.336Z,10.45
2023-03-29T08:25:16.596Z,21.83
2023-03-29T08:28:24.271Z,8.52
2023-03-29T08:31:28.205Z,9.23
2023-03-29T08:34:35.035Z,8.15
2023-03-29T08:37:58.133Z,70.97
2023-03-29T08:41:01.614Z,6.93
2023-03-29T08:44:21.668Z,8.18
2023-03-29T08:47:38.723Z,7.75
2023-03-29T08:50:49.751Z,22.15
2023-03-29T08:53:57.156Z,6.38
2023-03-29T08:57:28.072Z,6.57
2023-03-29T09:00:41.167Z,7.93
2023-03-29T09:03:48.444Z,9.32
2023-03-29T09:07:03.149Z,5.68
2023-03-29T09:10:17.217Z,10.95
2023-03-29T09:13:35.877Z,8.98
2023-03-29T09:16:46.647Z,13.93
2023-03-29T09:19:57.022Z,6.00
2023-03-29T09:23:15.090Z,8.20
2023-03-29T09:26:49.400Z,6.72
2023-03-29T09:30:14.583Z,7.50
2023-03-29T09:33:31.896Z,7.38
2023-03-29T09:36:46.330Z,4.63
2023-03-29T09:39:53.068Z,5.78
2023-03-29T09:43:00.915Z,6.22
2023-03-29T09:46:11.982Z,5.28
2023-03-29T09:49:20.284Z,6.13
2023-03-29T09:52:24.470Z,6.82
2023-03-29T09:55:52.510Z,5.40
2023-03-29T09:59:17.890Z,8.13
2023-03-29T10:02:22.543Z,5.53
2023-03-29T10:05:29.558Z,4.40
2023-03-29T10:08:40.777Z,7.32
2023-03-29T10:14:55.330Z,6.05
2023-03-29T10:18:04.177Z,5.03
2023-03-29T10:21:08.304Z,8.35
2023-03-29T10:24:11.728Z,7.38
2023-03-29T10:27:19.308Z,16.27
2023-03-29T10:30:25.069Z,10.57
2023-03-29T10:33:32.742Z,5.25
2023-03-29T10:36:37.037Z,5.00
2023-03-29T10:39:50.097Z,4.53
2023-03-29T10:42:54.890Z,6.60
2023-03-29T10:46:16.332Z,4.97
2023-03-29T10:49:21.786Z,7.00
2023-03-29T10:52:25.589Z,10.55
2023-03-29T10:55:36.018Z,6.03
2023-03-29T10:58:57.468Z,7.22
2023-03-29T11:02:37.124Z,8.48
2023-03-29T11:05:47.347Z,5.03
2023-03-29T11:08:57.864Z,6.47
2023-03-29T11:15:37.496Z,7.70
2023-03-29T11:19:06.742Z,8.13
2023-03-29T11:22:17.547Z,8.90
2023-03-29T11:25:29.797Z,5.13
2023-03-29T11:28:42.166Z,5.43
2023-03-29T11:31:58.640Z,5.55
2023-03-29T11:35:12.311Z,6.00
2023-03-29T11:38:24.123Z,7.35
2023-03-29T11:41:30.970Z,6.32
2023-03-29T11:44:36.356Z,6.50
2023-03-29T11:47:44.448Z,8.40
2023-03-29T11:50:56.078Z,6.03
2023-03-29T11:54:05.612Z,9.85
2023-03-29T11:57:16.326Z,77.77
2023-03-29T12:00:24.586Z,5.32
2023-03-29T12:03:38.845Z,8.93
2023-03-29T12:06:48.661Z,7.35
2023-03-29T12:09:54.808Z,4.72
2023-03-29T12:13:05.697Z,5.72
2023-03-29T12:16:16.802Z,4.20
2023-03-29T12:19:25.782Z,6.60
2023-03-29T12:22:29.354Z,4.63
2023-03-29T12:25:42.926Z,4.97
2023-03-29T12:29:07.185Z,4.53
2023-03-29T12:32:29.401Z,5.80
2023-03-29T12:35:58.957Z,5.75
2023-03-29T12:39:38.889Z,4.95
2023-03-29T12:43:08.838Z,3.88
2023-03-29T12:46:32.938Z,5.40
2023-03-29T12:49:39.301Z,4.00
2023-03-29T12:52:44.122Z,5.93
2023-03-29T12:55:56.577Z,4.60
2023-03-29T12:59:25.676Z,3.90
2023-03-29T13:02:38.017Z,4.85
2023-03-29T13:05:41.962Z,4.25
2023-03-29T13:08:47.951Z,3.55
2023-03-29T13:11:54.328Z,5.10
2023-03-29T13:15:00.365Z,4.88
2023-03-29T13:18:12.612Z,4.78
2023-03-29T13:21:22.866Z,5.38
2023-03-29T13:24:47.972Z,7.97
2023-03-29T13:27:58.788Z,3.58
2023-03-29T13:31:08.599Z,4.05
2023-03-29T13:34:24.914Z,4.55
2023-03-29T13:37:38.926Z,4.65
2023-03-29T13:40:59.385Z,8.73
2023-03-29T13:44:02.909Z,5.18
2023-03-29T13:47:16.432Z,5.00
2023-03-29T13:50:30.556Z,7.13
2023-03-29T13:53:37.459Z,7.60
2023-03-29T13:56:51.661Z,5.57
2023-03-29T14:00:00.696Z,15.82
2023-03-29T14:03:08.642Z,7.00
2023-03-29T14:06:15.765Z,7.05
2023-03-29T14:09:19.848Z,6.07
2023-03-29T14:12:24.519Z,5.70
2023-03-29T14:15:43.979Z,7.53
2023-03-29T14:18:51.220Z,6.60
2023-03-29T14:21:55.069Z,8.15
2023-03-29T14:25:04.632Z,7.43
2023-03-29T14:28:21.108Z,9.30
2023-03-29T14:31:26.148Z,9.48
2023-03-29T14:34:29.566Z,7.93
2023-03-29T14:37:32.871Z,20.13
2023-03-29T14:40:36.458Z,30.13
2023-03-29T14:43:41.992Z,35.60
2023-03-29T14:46:46.785Z,10.77
2023-03-29T14:49:50.795Z,7.13
2023-03-29T14:52:56.023Z,5.82
2023-03-29T14:56:00.923Z,9.70
2023-03-29T14:59:17.802Z,9.07
2023-03-29T15:02:26.673Z,6.57
2023-03-29T15:05:40.266Z,9.45
2023-03-29T15:08:58.080Z,8.95
2023-03-29T15:12:08.568Z,8.57
2023-03-29T15:15:15.368Z,7.80
2023-03-29T15:18:33.469Z,9.65
2023-03-29T15:21:39.715Z,6.03
2023-03-29T15:24:48.542Z,5.90
2023-03-29T15:27:59.573Z,10.48
2023-03-29T15:31:12.539Z,9.23
2023-03-29T15:34:26.699Z,11.63
2023-03-29T15:37:30.744Z,9.60
2023-03-29T15:40:34.402Z,7.65
2023-03-29T15:43:38.171Z,8.80
2023-03-29T15:46:42.921Z,9.00
2023-03-29T15:49:48.939Z,13.20
2023-03-29T15:52:59.961Z,8.80
2023-03-29T15:56:18.372Z,10.38
2023-03-29T15:59:21.833Z,15.02
2023-03-29T16:02:26.767Z,13.38
2023-03-29T16:05:30.212Z,18.02
2023-03-29T16:08:33.703Z,16.23
2023-03-29T16:11:37.210Z,19.45
2023-03-29T16:14:43.748Z,12.63
2023-03-29T16:17:51.028Z,16.08
2023-03-29T16:20:54.530Z,18.10
2023-03-29T16:23:57.896Z,15.27
2023-03-29T16:27:03.442Z,25.90
2023-03-29T16:30:08.866Z,28.45
2023-03-29T16:33:14.185Z,23.23
2023-03-29T16:36:18.253Z,21.80
2023-03-29T16:39:21.923Z,22.90
2023-03-29T16:42:28.255Z,43.22
2023-03-29T16:45:31.799Z,45.72
2023-03-29T16:48:36.819Z,48.67
2023-03-29T16:51:40.471Z,48.45
2023-03-29T16:54:45.685Z,46.80
2023-03-29T16:57:50.962Z,37.60
2023-03-29T17:00:56.327Z,35.90
2023-03-29T17:04:01.607Z,44.30
2023-03-29T17:07:05.081Z,35.42
2023-03-29T17:10:09.270Z,41.22
2023-03-29T17:13:14.060Z,44.72
2023-03-29T17:16:17.500Z,74.57
2023-03-29T17:19:22.281Z,52.90
2023-03-29T17:22:26.058Z,61.65
2023-03-29T17:25:29.968Z,54.60
2023-03-29T17:28:33.323Z,59.78
2023-03-29T17:31:38.038Z,75.75
2023-03-29T17:34:42.831Z,73.10
2023-03-29T17:37:46.211Z,81.22
2023-03-29T17:40:53.915Z,85.38
2023-03-29T17:43:57.279Z,89.10
2023-03-29T17:47:00.928Z,93.35
2023-03-29T17:50:06.781Z,97.43
2023-03-29T17:53:10.203Z,105.78
2023-03-29T17:56:13.909Z,114.07
2023-03-29T17:59:17.476Z,148.70
2023-03-29T18:02:22.651Z,139.00
2023-03-29T18:05:27.966Z,169.90
2023-03-29T18:08:31.785Z,254.15
2023-03-29T18:11:36.368Z,199.05
2023-03-29T18:14:39.712Z,213.35
2023-03-29T18:17:43.637Z,258.05
2023-03-29T18:20:49.727Z,198.43
2023-03-29T18:23:56.804Z,217.60
2023-03-29T18:27:02.122Z,162.88
2023-03-29T18:30:08.757Z,189.48
2023-03-29T18:33:12.154Z,158.52
2023-03-29T18:36:17.113Z,182.55
2023-03-29T18:39:20.575Z,148.00
2023-03-29T18:42:23.842Z,159.88
2023-03-29T18:45:27.150Z,136.43
2023-03-29T18:48:33.594Z,161.07
2023-03-29T18:51:38.329Z,200.30
2023-03-29T18:54:41.858Z,147.98
2023-03-29T18:57:45.380Z,132.70
2023-03-29T19:00:48.633Z,135.73
2023-03-29T19:03:54.011Z,183.05
2023-03-29T19:06:59.801Z,142.05
2023-03-29T19:10:03.617Z,156.98
2023-03-29T19:13:07.519Z,182.18
2023-03-29T19:16:12.118Z,542.88
2023-03-29T19:19:15.621Z,310.63
2023-03-29T19:22:20.302Z,310.67
2023-03-29T19:25:23.670Z,250.57
2023-03-29T19:28:27.338Z,214.25
2023-03-29T19:31:31.794Z,273.85
2023-03-29T19:34:35.621Z,229.75
2023-03-29T19:37:40.511Z,211.38
2023-03-29T19:40:46.115Z,212.90
2023-03-29T19:43:51.932Z,188.93
2023-03-29T19:46:55.348Z,210.48
2023-03-29T19:49:58.978Z,213.55
2023-03-29T19:53:03.645Z,219.80
2023-03-29T19:56:10.719Z,264.90
2023-03-29T19:59:15.395Z,302.52
2023-03-29T20:02:19.877Z,341.50
2023-03-29T20:05:24.046Z,351.00
2023-03-29T20:08:28.677Z,332.65
2023-03-29T20:11:31.953Z,309.75
2023-03-29T20:14:37.950Z,356.58
2023-03-29T20:17:41.598Z,398.15
2023-03-29T20:20:45.210Z,492.73
2023-03-29T20:23:49.899Z,448.95
2023-03-29T20:26:53.445Z,401.23
2023-03-29T20:29:57.247Z,428.50
2023-03-29T20:33:00.623Z,373.77
2023-03-29T20:36:04.671Z,299.38
2023-03-29T20:39:09.457Z,309.85
2023-03-29T20:42:14.115Z,274.33
2023-03-29T20:45:19.517Z,238.52
2023-03-29T20:48:24.737Z,163.77
2023-03-29T20:51:30.448Z,195.05
2023-03-29T20:54:35.489Z,134.80
2023-03-29T20:57:40.560Z,148.15
2023-03-29T21:00:44.131Z,137.32
2023-03-29T21:03:47.490Z,137.20
2023-03-29T21:06:50.750Z,118.03
2023-03-29T21:09:55.610Z,95.15
2023-03-29T21:13:00.531Z,92.13
2023-03-29T21:16:04.387Z,97.05
2023-03-29T21:19:07.813Z,90.50
2023-03-29T21:22:13.639Z,86.43
2023-03-29T21:25:18.362Z,89.72
2023-03-29T21:28:21.561Z,103.00
2023-03-29T21:31:25.017Z,103.05
2023-03-29T21:34:28.284Z,110.55
2023-03-29T21:37:31.578Z,106.22
2023-03-29T21:40:38.949Z,113.07
2023-03-29T21:43:42.149Z,108.28
2023-03-29T21:46:45.836Z,120.05
2023-03-29T21:49:49.132Z,134.52
2023-03-29T21:52:55.376Z,122.72
2023-03-29T21:55:59.950Z,117.18
2023-03-29T21:59:03.241Z,100.82
2023-03-29T22:02:06.741Z,86.95
2023-03-29T22:05:10.438Z,83.15
2023-03-29T22:08:13.635Z,68.72
2023-03-29T22:11:18.519Z,57.97
2023-03-29T22:14:21.992Z,63.53
2023-03-29T22:17:26.533Z,56.58
2023-03-29T22:20:30.154Z,49.72
2023-03-29T22:23:33.637Z,51.25
2023-03-29T22:26:38.296Z,41.40
2023-03-29T22:29:41.460Z,39.10
2023-03-29T22:32:44.948Z,42.08
2023-03-29T22:35:48.502Z,38.72
2023-03-29T22:38:52.716Z,35.47
2023-03-29T22:41:57.253Z,39.70
2023-03-29T22:45:00.457Z,42.65
2023-03-29T22:48:03.674Z,36.25
2023-03-29T22:51:07.346Z,37.88
2023-03-29T22:54:10.565Z,41.92
2023-03-29T22:57:15.582Z,41.53
2023-03-29T23:00:31.179Z,43.50
2023-03-29T23:03:34.655Z,38.55
2023-03-29T23:06:38.071Z,44.70
2023-03-29T23:09:41.497Z,38.65
2023-03-29T23:12:46.055Z,38.55
2023-03-29T23:15:50.221Z,37.97
2023-03-29T23:18:53.440Z,39.00
2023-03-29T23:21:56.761Z,40.08
2023-03-29T23:25:00.376Z,38.45
2023-03-29T23:28:05.122Z,34.80
2023-03-29T23:31:10.525Z,40.50
2023-03-29T23:34:14.436Z,35.55
2023-03-29T23:37:17.570Z,35.35
2023-03-29T23:40:21.296Z,32.10
2023-03-29T23:43:27.096Z,34.60
2023-03-29T23:46:31.322Z,31.48
2023-03-29T23:49:34.599Z,28.17
2023-03-29T23:52:38.130Z,29.52
2023-03-29T23:55:41.267Z,30.48
2023-03-29T23:58:46.052Z,27.45
